Time;durP1;ratioP1;P1;durP2;ratioP2;P2;SDS_P1;SDS_P2;PMS_P1;PMS_P2;Temp;Humidity;BMP_temperature;BMP_pressure;BME280_temperature;BME280_humidity;BME280_pressure;Samples;Min_cycle;Max_cycle;Signal;HPM_P1;HPM_P2
2020/12/14 00:00:41;;;;;;;38.03;17.40;;;;;;;2.51;81.94;100546.16;5039110;28;20080;-70
2020/12/14 00:03:06;;;;;;;25.02;16.33;;;;;;;2.40;82.53;100542.41;5021348;28;20319;-70
2020/12/14 00:05:32;;;;;;;27.02;17.35;;;;;;;2.36;82.47;100537.97;5039349;28;20029;-70
2020/12/14 00:07:58;;;;;;;34.75;21.15;;;;;;;2.33;82.90;100535.25;5041811;28;20033;-70
2020/12/14 00:10:23;;;;;;;27.73;17.98;;;;;;;2.27;83.05;100542.91;5042600;28;20377;-70
2020/12/14 00:12:49;;;;;;;305.10;30.20;;;;;;;2.22;82.67;100536.69;5041087;28;20056;-70
2020/12/14 00:15:14;;;;;;;25.15;17.33;;;;;;;2.09;82.54;100548.47;5040792;28;20120;-70
2020/12/14 00:17:39;;;;;;;21.83;14.45;;;;;;;2.02;82.34;100547.44;5040080;28;20408;-70
2020/12/14 00:20:05;;;;;;;51.70;18.25;;;;;;;2.00;82.61;100546.50;5042552;28;20029;-70
2020/12/14 00:22:31;;;;;;;16.70;11.85;;;;;;;1.92;83.05;100541.06;5042348;28;20052;-69
2020/12/14 00:24:57;;;;;;;98.65;16.77;;;;;;;1.85;83.10;100540.84;5040123;28;20036;-70
2020/12/14 00:27:22;;;;;;;18.20;13.77;;;;;;;1.80;82.71;100543.31;5032199;28;20041;-69
2020/12/14 00:29:48;;;;;;;20.13;13.27;;;;;;;1.73;83.20;100550.06;5039030;28;20072;-70
2020/12/14 00:32:13;;;;;;;26.97;14.30;;;;;;;1.68;82.83;100549.03;5040511;28;20089;-69
2020/12/14 00:34:38;;;;;;;24.20;17.20;;;;;;;1.64;82.96;100551.50;5043061;28;20025;-69
2020/12/14 00:37:04;;;;;;;35.83;17.33;;;;;;;1.60;82.65;100553.13;5046322;28;20044;-70
2020/12/14 00:39:30;;;;;;;153.55;21.88;;;;;;;1.58;83.25;100540.94;5046292;28;20044;-70
2020/12/14 00:41:55;;;;;;;29.65;14.32;;;;;;;1.56;82.85;100548.66;5044093;28;20064;-69
2020/12/14 00:44:21;;;;;;;44.37;16.67;;;;;;;1.56;83.17;100547.78;5042585;28;20045;-69
2020/12/14 00:46:46;;;;;;;35.78;16.92;;;;;;;1.58;83.11;100548.72;5043655;28;20044;-69
2020/12/14 00:49:12;;;;;;;33.87;16.30;;;;;;;1.58;83.44;100539.19;5046153;28;20067;-70
2020/12/14 00:51:37;;;;;;;40.73;16.63;;;;;;;1.58;83.46;100551.31;5045940;28;20044;-70
2020/12/14 00:54:03;;;;;;;96.80;17.70;;;;;;;1.55;82.83;100557.31;5042643;28;20388;-70
2020/12/14 00:56:28;;;;;;;39.67;11.83;;;;;;;1.44;83.16;100557.00;5042522;28;20075;-70
2020/12/14 00:58:53;;;;;;;97.80;18.63;;;;;;;1.43;83.47;100564.72;5044623;28;20029;-69
2020/12/14 01:01:19;;;;;;;96.97;20.37;;;;;;;1.35;83.27;100559.28;5045820;28;20084;-69
2020/12/14 01:03:44;;;;;;;86.77;17.70;;;;;;;1.28;82.76;100573.81;5045078;28;20036;-69
2020/12/14 01:06:10;;;;;;;27.07;11.07;;;;;;;1.23;83.50;100574.50;5042435;28;20041;-70
2020/12/14 01:08:35;;;;;;;39.47;15.07;;;;;;;1.26;83.58;100569.41;5042400;28;20080;-70
2020/12/14 01:11:01;;;;;;;134.67;30.37;;;;;;;1.30;84.07;100579.94;5045020;28;20036;-70
2020/12/14 01:13:27;;;;;;;31.33;16.40;;;;;;;1.31;84.00;100573.91;5045546;28;20037;-70
2020/12/14 01:15:53;;;;;;;25.73;14.23;;;;;;;1.39;84.29;100575.84;5043802;28;20064;-70
2020/12/14 01:18:18;;;;;;;26.43;14.03;;;;;;;1.44;83.92;100574.28;5042263;28;20124;-70
2020/12/14 01:20:46;;;;;;;23.37;14.60;;;;;;;1.49;83.09;100576.22;5042681;28;20037;-69
2020/12/14 01:23:12;;;;;;;49.37;13.83;;;;;;;1.54;83.67;100576.34;5045308;28;20483;-70
2020/12/14 01:25:37;;;;;;;24.53;15.10;;;;;;;1.61;83.87;100578.31;5045503;28;20033;-70
2020/12/14 01:28:02;;;;;;;24.93;16.60;;;;;;;1.66;83.60;100575.84;5042363;28;20096;-70
2020/12/14 01:30:28;;;;;;;19.47;13.00;;;;;;;1.70;83.29;100582.91;5041959;28;20073;-69
2020/12/14 01:32:53;;;;;;;26.37;14.30;;;;;;;1.69;83.11;100579.41;5043459;28;20042;-70
2020/12/14 01:35:18;;;;;;;16.00;12.13;;;;;;;1.65;82.94;100589.69;5045416;28;20036;-69
2020/12/14 01:37:44;;;;;;;18.23;12.33;;;;;;;1.58;82.81;100590.34;5044685;28;20029;-69
2020/12/14 01:40:09;;;;;;;77.43;16.10;;;;;;;1.52;83.26;100588.44;5041718;28;20058;-69
2020/12/14 01:42:44;;;;;;;28.93;12.67;;;;;;;1.46;82.98;100588.22;5041023;28;20065;-69
2020/12/14 01:45:10;;;;;;;25.70;13.40;;;;;;;1.57;83.61;100596.38;5040073;28;20033;-70
2020/12/14 01:47:42;;;;;;;37.33;15.27;;;;;;;1.70;83.26;100593.31;5041706;28;20432;-69
2020/12/14 01:50:09;;;;;;;;;;;;;;;1.73;83.08;100594.31;5042051;28;20531;-70
2020/12/14 01:52:35;;;;;;;45.00;17.37;;;;;;;1.82;83.09;100598.00;5041173;28;19971;-70
2020/12/14 01:55:01;;;;;;;31.40;17.07;;;;;;;1.96;83.53;100596.69;5044401;28;20119;-70
2020/12/14 01:57:29;;;;;;;24.77;15.75;;;;;;;2.13;83.10;100590.28;5045154;28;20116;-70
2020/12/14 01:59:56;;;;;;;24.10;16.63;;;;;;;2.27;83.14;100579.34;5042670;28;20044;-69
2020/12/14 02:02:22;;;;;;;25.27;15.77;;;;;;;2.37;82.89;100579.66;5041132;28;20052;-70
2020/12/14 02:04:47;;;;;;;23.42;15.95;;;;;;;2.44;82.18;100580.72;5042400;28;20407;-70
2020/12/14 02:07:13;;;;;;;24.15;16.50;;;;;;;2.53;82.03;100580.09;5044787;28;20064;-70
2020/12/14 02:09:38;;;;;;;23.33;14.63;;;;;;;2.62;81.98;100576.00;5044054;28;20033;-70
2020/12/14 02:12:04;;;;;;;23.77;17.30;;;;;;;2.69;81.56;100576.16;5043548;28;20041;-70
2020/12/14 02:14:29;;;;;;;27.85;17.00;;;;;;;2.61;81.42;100576.84;5041132;28;20571;-70
2020/12/14 02:16:54;;;;;;;22.10;15.25;;;;;;;2.59;81.92;100569.81;5043088;28;20068;-70
2020/12/14 02:19:19;;;;;;;23.83;17.30;;;;;;;2.69;81.27;100565.75;5044508;28;20040;-70
2020/12/14 02:21:49;;;;;;;19.40;13.75;;;;;;;2.67;81.17;100560.47;5025879;28;20056;-70
2020/12/14 02:24:15;;;;;;;19.40;13.77;;;;;;;2.72;81.05;100560.59;5023316;28;20384;-70
2020/12/14 02:26:40;;;;;;;21.27;15.32;;;;;;;2.64;80.65;100552.56;5041012;28;20044;-70
2020/12/14 02:29:06;;;;;;;22.85;15.60;;;;;;;2.54;80.58;100543.66;5026792;28;20037;-70
2020/12/14 02:31:31;;;;;;;25.63;15.20;;;;;;;2.43;80.47;100545.06;5026429;28;20106;-70
2020/12/14 02:33:56;;;;;;;23.77;14.77;;;;;;;2.30;81.29;100537.78;5041712;28;20045;-70
2020/12/14 02:36:23;;;;;;;25.60;17.02;;;;;;;2.21;80.61;100547.94;5040801;28;20037;-70
2020/12/14 02:38:48;;;;;;;21.05;13.75;;;;;;;2.12;80.94;100551.16;5041810;28;20120;-69
2020/12/14 02:41:14;;;;;;;21.75;14.40;;;;;;;2.03;81.66;100543.97;5044068;28;20563;-70
2020/12/14 02:43:39;;;;;;;26.33;17.42;;;;;;;1.98;81.90;100541.25;5043778;28;20056;-70
2020/12/14 02:46:04;;;;;;;24.10;15.23;;;;;;;1.95;81.58;100542.88;5040654;28;20068;-70
2020/12/14 02:48:29;;;;;;;23.53;17.23;;;;;;;1.89;81.84;100538.38;5040550;28;20044;-70
2020/12/14 02:50:55;;;;;;;20.43;14.77;;;;;;;1.83;81.81;100537.31;5042283;28;20038;-70
2020/12/14 02:53:20;;;;;;;19.87;13.27;;;;;;;1.78;82.05;100549.31;5043647;28;20068;-70
2020/12/14 02:55:45;;;;;;;25.83;16.67;;;;;;;1.80;82.11;100539.81;5042634;28;20045;-70
2020/12/14 02:58:11;;;;;;;23.17;15.40;;;;;;;1.83;81.94;100532.09;5040417;28;20052;-70
2020/12/14 03:00:36;;;;;;;18.10;12.57;;;;;;;1.91;82.24;100535.81;5040011;28;20041;-70
2020/12/14 03:03:01;;;;;;;26.27;13.57;;;;;;;1.93;81.73;100535.00;5042945;28;20488;-69
2020/12/14 03:05:27;;;;;;;20.63;13.83;;;;;;;1.94;81.57;100538.53;5043814;28;20503;-70
2020/12/14 03:07:52;;;;;;;23.60;15.03;;;;;;;1.87;81.58;100557.41;5041933;28;20518;-70
2020/12/14 03:10:17;;;;;;;19.60;12.97;;;;;;;1.88;81.90;100556.53;5040087;28;20446;-69
2020/12/14 03:12:43;;;;;;;17.50;12.38;;;;;;;2.02;81.95;100564.75;5040173;28;20040;-70
2020/12/14 03:15:08;;;;;;;16.38;10.65;;;;;;;2.07;81.92;100564.06;5043507;28;20037;-70
2020/12/14 03:17:34;;;;;;;15.67;10.90;;;;;;;2.18;81.67;100569.56;5043495;28;20037;-70
2020/12/14 03:19:59;;;;;;;16.35;11.95;;;;;;;2.29;81.62;100564.66;5040889;28;20858;-70
2020/12/14 03:22:24;;;;;;;22.90;16.50;;;;;;;2.25;81.59;100568.88;5039598;28;20407;-70
2020/12/14 03:24:50;;;;;;;18.23;11.82;;;;;;;2.35;81.38;100555.28;5036625;28;20506;-70
2020/12/14 03:27:15;;;;;;;19.83;12.63;;;;;;;2.39;81.26;100566.69;5039910;28;20029;-70
2020/12/14 03:29:40;;;;;;;15.48;11.73;;;;;;;2.42;81.12;100572.84;5039822;28;20492;-69
2020/12/14 03:32:06;;;;;;;17.00;12.15;;;;;;;2.56;81.56;100569.75;5042943;28;20491;-70
2020/12/14 03:34:31;;;;;;;20.17;13.77;;;;;;;2.74;81.19;100571.94;5044614;28;20090;-70
2020/12/14 03:36:57;;;;;;;23.42;16.30;;;;;;;2.90;81.10;100555.84;5058335;28;20147;-69
2020/12/14 03:39:22;;;;;;;20.70;14.23;;;;;;;2.95;81.27;100559.47;5057507;28;20449;-69
2020/12/14 03:41:50;;;;;;;24.48;16.48;;;;;;;3.02;81.83;100558.78;5042006;28;20419;-70
2020/12/14 03:44:15;;;;;;;22.65;15.52;;;;;;;3.14;81.09;100554.69;5067007;28;20068;-70
2020/12/14 03:46:40;;;;;;;24.75;15.25;;;;;;;3.21;81.22;100557.50;5046456;28;20068;-70
2020/12/14 03:49:06;;;;;;;24.00;16.27;;;;;;;3.33;81.19;100558.63;5042921;28;20032;-70
2020/12/14 03:51:31;;;;;;;23.33;15.00;;;;;;;3.35;80.54;100559.56;5036306;28;20029;-70
2020/12/14 03:53:56;;;;;;;22.65;15.40;;;;;;;3.37;80.96;100560.47;5064990;28;20407;-71
2020/12/14 03:56:23;;;;;;;20.25;13.57;;;;;;;3.35;80.80;100555.22;5042924;28;20295;-70
2020/12/14 03:58:49;;;;;;;19.75;13.52;;;;;;;3.38;80.88;100551.78;5041553;28;20098;-70
2020/12/14 04:01:24;;;;;;;28.10;17.42;;;;;;;3.39;80.40;100557.06;5039204;28;20041;-70
2020/12/14 04:03:50;;;;;;;26.58;17.08;;;;;;;3.41;80.74;100551.88;5040230;28;20080;-70
2020/12/14 04:06:25;;;;;;;21.05;13.73;;;;;;;3.40;80.66;100558.81;5042398;28;20511;-70
2020/12/14 04:08:52;;;;;;;25.00;16.45;;;;;;;3.40;80.25;100569.25;5042550;28;20132;-70
2020/12/14 04:11:18;;;;;;;22.20;14.82;;;;;;;3.31;80.11;100569.03;5061816;28;20037;-69
2020/12/14 04:13:44;;;;;;;19.08;13.52;;;;;;;3.15;79.83;100577.34;5048696;28;20098;-71
2020/12/14 04:16:10;;;;;;;19.58;14.35;;;;;;;2.97;80.09;100575.16;5042752;28;20047;-70
2020/12/14 04:18:36;;;;;;;30.75;16.35;;;;;;;2.84;80.52;100573.97;5036510;28;20069;-71
2020/12/14 04:21:01;;;;;;;22.98;15.00;;;;;;;2.70;80.97;100564.88;5041967;28;20064;-71
2020/12/14 04:23:26;;;;;;;20.75;13.85;;;;;;;2.62;81.47;100560.38;5042372;28;20116;-70
2020/12/14 04:25:52;;;;;;;24.35;15.43;;;;;;;2.61;81.71;100563.81;5023456;28;20039;-70
2020/12/14 04:28:17;;;;;;;22.35;14.15;;;;;;;2.61;81.37;100553.38;5031372;28;20511;-71
2020/12/14 04:30:42;;;;;;;24.92;14.90;;;;;;;2.55;81.62;100548.03;5021443;28;20025;-71
2020/12/14 04:33:08;;;;;;;24.95;15.60;;;;;;;2.51;81.51;100551.38;5038922;28;20120;-71
2020/12/14 04:35:33;;;;;;;25.52;16.70;;;;;;;2.46;81.69;100547.75;5039111;28;20124;-71
2020/12/14 04:37:58;;;;;;;28.88;16.80;;;;;;;2.40;81.29;100547.59;5041517;28;20071;-71
2020/12/14 04:40:28;;;;;;;29.50;18.23;;;;;;;2.34;81.24;100558.75;5042366;28;20048;-71
2020/12/14 04:42:57;;;;;;;24.50;15.82;;;;;;;2.30;81.52;100561.22;5040306;28;20033;-70
2020/12/14 04:45:24;;;;;;;25.52;15.90;;;;;;;2.23;81.66;100570.59;5039313;28;20033;-71
2020/12/14 04:47:54;;;;;;;31.48;18.02;;;;;;;2.17;82.03;100555.69;5040170;28;20077;-70
2020/12/14 04:50:21;;;;;;;31.58;18.67;;;;;;;2.14;82.04;100560.78;5042364;28;20037;-72
2020/12/14 04:52:47;;;;;;;29.67;16.73;;;;;;;2.10;81.97;100560.66;5041093;28;20041;-71
2020/12/14 04:55:13;;;;;;;32.08;18.77;;;;;;;2.11;82.46;100565.91;5038826;28;20033;-69
2020/12/14 04:57:39;;;;;;;27.05;17.80;;;;;;;2.14;82.05;100565.09;5039114;28;20036;-69
2020/12/14 05:00:08;;;;;;;30.13;18.63;;;;;;;2.16;81.78;100564.31;5041097;28;20616;-68
2020/12/14 05:02:33;;;;;;;34.63;22.52;;;;;;;2.19;81.93;100569.59;5037035;28;20449;-68
2020/12/14 05:04:58;;;;;;;31.65;20.08;;;;;;;2.22;81.64;100552.31;5039088;28;20111;-68
2020/12/14 05:07:39;;;;;;;32.72;19.20;;;;;;;2.24;81.74;100566.25;5038826;28;20116;-69
2020/12/14 05:10:04;;;;;;;29.13;18.17;;;;;;;2.31;81.71;100558.66;5041884;28;20487;-68
2020/12/14 05:12:30;;;;;;;31.92;19.27;;;;;;;2.36;81.85;100559.69;5041726;28;20052;-69
2020/12/14 05:14:55;;;;;;;29.58;18.38;;;;;;;2.42;81.58;100566.78;5040017;28;20135;-68
2020/12/14 05:17:24;;;;;;;36.15;19.55;;;;;;;2.50;81.57;100557.44;5039080;28;20112;-69
2020/12/14 05:19:50;;;;;;;33.80;19.85;;;;;;;2.59;81.70;100568.13;5043276;28;20037;-68
2020/12/14 05:22:17;;;;;;;37.13;22.30;;;;;;;2.70;81.23;100562.28;5045376;28;20033;-68
2020/12/14 05:24:52;;;;;;;40.50;24.83;;;;;;;2.79;81.60;100562.53;5045331;28;20479;-68
2020/12/14 05:27:34;;;;;;;43.05;25.25;;;;;;;2.90;81.33;100558.47;5042230;28;20400;-68
2020/12/14 05:30:00;;;;;;;38.25;22.45;;;;;;;3.00;81.62;100557.84;5044702;28;20038;-68
2020/12/14 05:32:26;;;;;;;40.88;23.00;;;;;;;3.09;81.07;100554.59;5052701;28;20036;-69
2020/12/14 05:34:51;;;;;;;39.90;23.60;;;;;;;3.18;81.10;100553.94;5062811;28;20039;-69
2020/12/14 05:37:17;;;;;;;37.00;21.90;;;;;;;3.24;80.99;100560.16;5066672;28;20036;-68
2020/12/14 05:39:44;;;;;;;37.90;21.42;;;;;;;3.31;80.98;100558.59;5044939;28;20064;-69
2020/12/14 05:42:16;;;;;;;42.42;23.20;;;;;;;3.38;81.18;100563.13;5041599;28;20545;-69
2020/12/14 05:44:44;;;;;;;38.28;19.80;;;;;;;3.43;80.81;100558.91;5042009;28;20404;-68
2020/12/14 05:47:30;;;;;;;36.85;20.48;;;;;;;3.46;81.27;100558.97;5045294;28;20044;-69
2020/12/14 05:49:57;;;;;;;33.97;20.05;;;;;;;3.52;80.62;100558.22;5042979;28;20043;-68
2020/12/14 05:52:30;;;;;;;38.63;22.42;;;;;;;3.58;80.88;100562.69;5041264;28;20041;-69
2020/12/14 05:54:56;;;;;;;;;;;;;;;3.58;81.01;100567.91;5044149;28;20118;-69
2020/12/14 05:57:35;;;;;;;37.03;22.48;;;;;;;3.66;80.15;100558.53;5045068;28;20017;-69
2020/12/14 06:00:05;;;;;;;39.42;22.17;;;;;;;3.68;80.18;100559.44;5042058;28;20044;-69
2020/12/14 06:02:31;;;;;;;32.08;18.88;;;;;;;3.68;80.00;100562.06;5041213;28;20037;-68
2020/12/14 06:04:58;;;;;;;34.53;20.33;;;;;;;3.64;80.20;100563.72;5043636;28;20124;-69
2020/12/14 06:07:26;;;;;;;34.05;19.70;;;;;;;3.59;80.12;100554.00;5044887;28;20037;-69
2020/12/14 06:10:14;;;;;;;42.95;22.60;;;;;;;3.44;80.46;100554.56;5043181;28;20510;-69
2020/12/14 06:12:42;;;;;;;32.55;20.17;;;;;;;3.32;80.35;100555.13;5042034;28;20048;-69
2020/12/14 06:15:09;;;;;;;36.83;20.02;;;;;;;3.22;80.21;100560.97;5041145;28;20590;-68
2020/12/14 06:17:36;;;;;;;39.17;20.85;;;;;;;3.08;80.93;100564.13;5041541;28;20392;-68
2020/12/14 06:20:14;;;;;;;42.17;22.98;;;;;;;2.97;80.93;100556.91;5044074;28;20055;-69
2020/12/14 06:22:45;;;;;;;31.98;18.50;;;;;;;2.82;81.27;100552.19;5044399;28;20083;-69
2020/12/14 06:25:10;;;;;;;35.80;20.55;;;;;;;2.73;81.62;100546.75;5041018;28;20033;-69
2020/12/14 06:27:36;;;;;;;38.05;22.30;;;;;;;2.68;82.02;100553.56;5040955;28;20389;-69
2020/12/14 06:30:29;;;;;;;39.85;21.70;;;;;;;2.57;82.09;100554.16;5043061;28;20045;-68
2020/12/14 06:32:59;;;;;;;34.80;19.70;;;;;;;2.54;82.15;100555.78;5042116;28;20503;-68
2020/12/14 06:35:41;;;;;;;33.58;18.70;;;;;;;2.42;82.19;100552.00;5040822;28;20041;-69
2020/12/14 06:38:07;;;;;;;35.50;21.08;;;;;;;2.34;82.53;100543.13;5040696;28;20071;-69
2020/12/14 06:40:56;;;;;;;38.45;20.38;;;;;;;2.28;82.68;100542.03;5040636;28;20075;-69
2020/12/14 06:43:32;;;;;;;38.78;21.50;;;;;;;2.23;83.41;100535.84;5040579;28;20148;-69
2020/12/14 06:45:57;;;;;;;35.88;21.27;;;;;;;2.26;83.10;100535.94;5042915;28;20065;-68
2020/12/14 06:48:39;;;;;;;41.78;22.00;;;;;;;2.25;83.26;100549.78;5043991;28;20057;-69
2020/12/14 06:51:06;;;;;;;44.63;22.70;;;;;;;2.24;82.90;100558.44;5040578;28;20049;-68
2020/12/14 06:53:40;;;;;;;44.10;24.20;;;;;;;2.17;83.77;100567.78;5040292;28;20342;-69
2020/12/14 06:56:06;;;;;;;42.67;21.80;;;;;;;2.17;83.21;100566.09;5040481;28;20037;-69
2020/12/14 06:58:34;;;;;;;43.70;21.75;;;;;;;2.13;83.60;100558.16;5040415;28;20087;-68
2020/12/14 07:01:00;;;;;;;44.33;22.53;;;;;;;2.11;83.81;100571.13;5042862;28;20060;-68
2020/12/14 07:03:31;;;;;;;37.95;20.20;;;;;;;2.13;83.94;100569.44;5043546;28;20044;-69
2020/12/14 07:05:59;;;;;;;43.45;22.08;;;;;;;2.18;83.44;100567.84;5023609;28;20132;-68
2020/12/14 07:08:30;;;;;;;38.30;21.13;;;;;;;2.21;84.09;100566.19;5040288;28;20488;-69
2020/12/14 07:11:12;;;;;;;37.38;19.90;;;;;;;2.23;83.71;100557.56;5042012;28;20033;-69
2020/12/14 07:13:38;;;;;;;36.42;20.45;;;;;;;2.29;83.90;100562.94;5043367;28;20037;-69
2020/12/14 07:16:08;;;;;;;39.35;21.08;;;;;;;2.34;83.65;100555.25;5022641;28;20502;-69
2020/12/14 07:18:34;;;;;;;37.20;19.65;;;;;;;2.36;83.77;100559.69;5022449;28;20025;-68
2020/12/14 07:21:06;;;;;;;35.92;19.25;;;;;;;2.41;84.25;100557.16;5042405;28;20041;-68
2020/12/14 07:23:33;;;;;;;35.45;18.85;;;;;;;2.54;84.06;100561.91;5043075;28;20117;-68
2020/12/14 07:25:59;;;;;;;33.80;19.77;;;;;;;2.68;83.72;100566.59;5040706;28;20495;-69
2020/12/14 07:28:47;;;;;;;33.50;18.08;;;;;;;2.76;83.65;100565.94;5039843;28;20037;-68
2020/12/14 07:31:20;;;;;;;33.67;18.17;;;;;;;2.84;83.25;100567.00;5039687;28;20065;-69
2020/12/14 07:33:57;;;;;;;28.88;16.02;;;;;;;2.90;83.41;100568.88;5040297;28;20091;-69
2020/12/14 07:36:24;;;;;;;31.42;17.65;;;;;;;2.94;83.04;100562.94;5043095;28;20048;-69
2020/12/14 07:38:55;;;;;;;33.38;18.17;;;;;;;2.93;82.93;100565.47;5041854;28;20037;-68
2020/12/14 07:41:22;;;;;;;31.25;18.08;;;;;;;2.92;83.22;100564.59;5038742;28;20037;-69
2020/12/14 07:43:54;;;;;;;31.45;18.08;;;;;;;2.91;83.32;100573.28;5040342;28;20045;-69
2020/12/14 07:46:22;;;;;;;30.27;17.60;;;;;;;2.91;83.51;100569.75;5043122;28;20047;-69
2020/12/14 07:48:51;;;;;;;31.08;17.10;;;;;;;2.96;83.29;100569.06;5041993;28;20032;-68
2020/12/14 07:51:18;;;;;;;31.20;18.17;;;;;;;2.95;83.62;100569.00;5039404;28;20038;-69
2020/12/14 07:53:44;;;;;;;35.40;18.80;;;;;;;2.96;83.60;100561.25;5039593;28;20044;-68
2020/12/14 07:56:09;;;;;;;30.30;17.42;;;;;;;3.05;83.70;100556.25;5042940;28;20032;-69
2020/12/14 07:58:47;;;;;;;26.55;16.42;;;;;;;3.17;83.51;100562.59;5042851;28;20510;-69
2020/12/14 08:01:19;;;;;;;27.63;16.83;;;;;;;3.26;83.03;100555.88;5039078;28;20026;-68
2020/12/14 08:03:45;;;;;;;34.33;20.55;;;;;;;3.36;82.64;100557.00;5039621;28;20403;-69
2020/12/14 08:06:16;;;;;;;27.92;17.92;;;;;;;3.43;82.54;100563.22;5042965;28;20064;-68
2020/12/14 08:08:49;;;;;;;30.27;18.02;;;;;;;3.50;82.10;100565.13;5042672;28;20395;-69
2020/12/14 08:11:16;;;;;;;31.40;19.33;;;;;;;3.54;82.24;100558.25;5039258;28;20103;-69
2020/12/14 08:13:50;;;;;;;30.73;17.83;;;;;;;3.59;82.02;100557.53;5039126;28;20029;-68
2020/12/14 08:16:19;;;;;;;31.15;16.92;;;;;;;3.58;82.22;100562.69;5042625;28;20033;-69
2020/12/14 08:18:49;;;;;;;30.90;17.02;;;;;;;3.57;82.21;100563.56;5042158;28;20029;-68
2020/12/14 08:21:22;;;;;;;25.88;14.45;;;;;;;3.60;82.22;100556.66;5038330;28;20040;-69
2020/12/14 08:23:48;;;;;;;27.27;15.77;;;;;;;3.65;82.11;100559.38;5041338;28;20395;-69
2020/12/14 08:26:16;;;;;;;24.58;15.07;;;;;;;3.69;82.29;100562.09;5039152;28;20041;-69
2020/12/14 08:28:43;;;;;;;26.85;16.13;;;;;;;3.79;82.27;100568.38;5039175;28;20090;-68
2020/12/14 08:31:08;;;;;;;25.13;15.68;;;;;;;3.87;81.98;100577.25;5042349;28;20044;-69
2020/12/14 08:33:48;;;;;;;27.13;16.52;;;;;;;3.93;82.11;100572.19;5042372;28;20068;-69
2020/12/14 08:36:13;;;;;;;29.15;16.98;;;;;;;4.05;82.50;100575.91;5039174;28;20072;-69
2020/12/14 08:38:39;;;;;;;26.92;15.85;;;;;;;4.15;82.09;100581.34;5039096;28;20535;-69
2020/12/14 08:41:05;;;;;;;27.20;16.60;;;;;;;4.27;82.01;100582.44;5042043;28;20094;-69
2020/12/14 08:43:33;;;;;;;27.88;16.40;;;;;;;4.37;81.82;100585.25;5042460;28;20029;-69
2020/12/14 08:46:16;;;;;;;25.17;15.32;;;;;;;4.48;81.44;100593.34;5039870;28;20115;-69
2020/12/14 08:48:53;;;;;;;25.10;14.55;;;;;;;4.57;81.21;100576.94;5038893;28;20029;-69
2020/12/14 08:51:20;;;;;;;22.83;14.80;;;;;;;4.67;81.26;100586.72;5042287;28;20036;-68
2020/12/14 08:53:49;;;;;;;23.20;14.77;;;;;;;4.77;81.20;100585.16;5044221;28;20071;-69
2020/12/14 08:56:17;;;;;;;25.25;15.32;;;;;;;4.90;81.05;100584.53;5042782;28;20037;-69
2020/12/14 08:58:56;;;;;;;22.23;14.68;;;;;;;5.00;80.61;100583.84;5042795;28;20072;-69
2020/12/14 09:01:30;;;;;;;21.17;13.48;;;;;;;5.14;80.74;100584.06;5045945;28;20040;-69
2020/12/14 09:03:58;;;;;;;24.27;15.13;;;;;;;5.33;80.61;100579.13;5043649;28;20036;-69
2020/12/14 09:06:26;;;;;;;24.38;15.57;;;;;;;5.46;79.97;100579.34;5042510;28;20043;-69
2020/12/14 09:09:11;;;;;;;27.25;15.50;;;;;;;5.58;79.70;100578.66;5043747;28;20040;-69
2020/12/14 09:11:48;;;;;;;25.42;15.40;;;;;;;5.66;79.79;100577.03;5045637;28;20399;-69
2020/12/14 09:14:22;;;;;;;24.08;15.95;;;;;;;5.78;79.64;100572.81;5042033;28;20068;-69
2020/12/14 09:16:52;;;;;;;22.13;15.07;;;;;;;5.85;79.44;100570.31;5043159;28;20045;-69
2020/12/14 09:19:26;;;;;;;24.73;16.13;;;;;;;5.93;79.22;100571.31;5045681;28;20044;-69
2020/12/14 09:21:52;;;;;;;21.83;14.88;;;;;;;6.02;78.84;100570.53;5044251;28;20395;-69
2020/12/14 09:24:24;;;;;;;22.30;15.48;;;;;;;6.08;78.70;100569.78;5042021;28;20037;-69
2020/12/14 09:26:52;;;;;;;25.13;16.55;;;;;;;6.17;78.58;100576.88;5043142;28;20037;-69
2020/12/14 09:29:17;;;;;;;21.77;15.30;;;;;;;6.26;78.54;100569.09;5045484;28;20120;-68
2020/12/14 09:31:52;;;;;;;25.55;15.98;;;;;;;6.31;78.03;100564.78;5045073;28;20127;-69
2020/12/14 09:34:19;;;;;;;28.83;17.58;;;;;;;6.38;78.30;100563.13;5041691;28;20113;-69
2020/12/14 09:36:45;;;;;;;30.33;18.27;;;;;;;6.47;78.06;100569.38;5042364;28;20048;-69
2020/12/14 09:39:10;;;;;;;24.98;15.70;;;;;;;6.53;77.41;100574.66;5045146;28;20033;-69
2020/12/14 09:41:36;;;;;;;26.30;16.27;;;;;;;6.61;77.77;100566.00;5045201;28;20035;-69
2020/12/14 09:44:01;;;;;;;23.90;15.90;;;;;;;6.67;77.73;100561.69;5042279;28;20041;-69
2020/12/14 09:46:28;;;;;;;22.60;15.85;;;;;;;6.75;77.02;100560.03;5041830;28;20033;-69
2020/12/14 09:48:54;;;;;;;24.92;16.65;;;;;;;6.78;76.93;100567.91;5043323;28;20098;-69
2020/12/14 09:51:20;;;;;;;22.95;15.95;;;;;;;6.82;77.20;100557.47;5044829;28;20033;-68
2020/12/14 09:53:46;;;;;;;26.38;17.58;;;;;;;6.80;77.07;100546.97;5044269;28;20043;-69
2020/12/14 09:56:11;;;;;;;23.58;16.08;;;;;;;6.85;77.19;100558.38;5041649;28;20037;-69
2020/12/14 09:58:37;;;;;;;24.85;15.93;;;;;;;6.90;76.69;100545.31;5041556;28;20033;-69
2020/12/14 10:01:02;;;;;;;24.27;16.98;;;;;;;6.94;76.41;100553.22;5044268;28;20373;-68
2020/12/14 10:03:27;;;;;;;22.55;15.52;;;;;;;6.99;76.26;100556.75;5044383;28;20045;-69
2020/12/14 10:05:53;;;;;;;22.02;15.30;;;;;;;7.02;76.06;100559.41;5042378;28;20037;-69
2020/12/14 10:08:18;;;;;;;21.77;14.65;;;;;;;7.06;76.36;100557.69;5041221;28;20033;-69
2020/12/14 10:10:44;;;;;;;23.80;16.27;;;;;;;7.08;76.21;100562.97;5041436;28;20470;-69
2020/12/14 10:13:09;;;;;;;24.08;16.00;;;;;;;7.10;75.91;100558.59;5044310;28;20095;-69
2020/12/14 10:15:35;;;;;;;21.52;14.00;;;;;;;7.13;75.91;100550.75;5044691;28;20055;-69
2020/12/14 10:18:00;;;;;;;23.17;15.80;;;;;;;7.17;76.17;100557.78;5042037;28;20063;-69
2020/12/14 10:20:26;;;;;;;22.88;16.00;;;;;;;7.17;76.14;100555.16;5041065;28;20415;-69
2020/12/14 10:22:51;;;;;;;20.95;14.52;;;;;;;7.15;75.71;100556.88;5042208;28;20123;-69
2020/12/14 10:25:17;;;;;;;24.30;15.52;;;;;;;7.15;75.91;100559.50;5044456;28;20044;-69
2020/12/14 10:27:42;;;;;;;22.17;14.90;;;;;;;7.17;75.41;100553.41;5046678;28;20532;-69
2020/12/14 10:30:07;;;;;;;21.70;14.55;;;;;;;7.19;75.44;100550.81;5040793;28;20050;-69
2020/12/14 10:32:33;;;;;;;21.35;14.52;;;;;;;7.16;75.18;100554.28;5040606;28;20037;-68
2020/12/14 10:34:58;;;;;;;20.55;13.75;;;;;;;7.15;74.98;100554.25;5043113;28;20055;-68
2020/12/14 10:37:24;;;;;;;20.65;13.32;;;;;;;7.16;74.92;100551.66;5044331;28;20041;-69
2020/12/14 10:39:50;;;;;;;21.02;14.30;;;;;;;7.16;75.28;100548.16;5043016;28;20043;-69
2020/12/14 10:42:15;;;;;;;22.27;15.48;;;;;;;7.18;75.13;100549.94;5040352;28;20037;-68
2020/12/14 10:44:40;;;;;;;20.95;14.80;;;;;;;7.21;74.68;100546.44;5040798;28;20045;-69
2020/12/14 10:47:06;;;;;;;19.58;13.02;;;;;;;7.23;75.12;100544.69;5043985;28;20052;-69
2020/12/14 10:49:32;;;;;;;21.13;14.10;;;;;;;7.22;74.70;100542.94;5043979;28;20033;-68
2020/12/14 10:52:00;;;;;;;18.67;12.18;;;;;;;7.28;74.60;100542.97;5041543;28;20045;-69
2020/12/14 10:54:26;;;;;;;17.83;12.32;;;;;;;7.32;74.75;100541.28;5040299;28;20030;-69
2020/12/14 10:56:51;;;;;;;18.80;12.75;;;;;;;7.27;74.31;100538.59;5041759;28;20052;-69
2020/12/14 10:59:16;;;;;;;18.83;12.27;;;;;;;7.33;73.89;100532.53;5043741;28;20041;-69
2020/12/14 11:01:42;;;;;;;17.60;12.35;;;;;;;7.38;73.98;100531.69;5043557;28;20029;-69
2020/12/14 11:04:07;;;;;;;15.82;10.82;;;;;;;7.41;73.67;100525.56;5040014;28;20041;-69
2020/12/14 11:06:32;;;;;;;16.60;11.65;;;;;;;7.44;73.59;100526.50;5040329;28;20407;-69
2020/12/14 11:08:59;;;;;;;15.15;10.35;;;;;;;7.47;73.33;100517.75;5042393;28;20483;-69
2020/12/14 11:11:30;;;;;;;15.73;10.88;;;;;;;7.51;73.58;100516.00;5043485;28;20048;-69
2020/12/14 11:13:56;;;;;;;17.52;11.85;;;;;;;7.55;73.23;100520.44;5041431;28;20036;-69
2020/12/14 11:16:22;;;;;;;16.83;11.13;;;;;;;7.54;72.93;100523.91;5039858;28;20051;-69
2020/12/14 11:18:47;;;;;;;17.02;11.02;;;;;;;7.55;72.61;100520.44;5040752;28;20120;-69